Time;durP1;ratioP1;P1;durP2;ratioP2;P2;SDS_P1;SDS_P2;PMS_P1;PMS_P2;Temp;Humidity;BMP_temperature;BMP_pressure;BME280_temperature;BME280_humidity;BME280_pressure;Samples;Min_cycle;Max_cycle;Signal;HPM_P1;HPM_P2
2021/03/20 00:00:08;;;;;;;5.73;5.13;;;;;;;2.74;68.39;96015.63;5031613;28;20666;-84
2021/03/20 00:02:34;;;;;;;5.87;5.20;;;;;;;2.65;67.94;96019.72;5031639;28;20685;-83
2021/03/20 00:05:01;;;;;;;5.03;4.53;;;;;;;2.72;67.82;96017.50;5032721;28;20229;-83
2021/03/20 00:07:27;;;;;;;5.77;5.17;;;;;;;2.73;67.59;96019.91;5032042;28;20233;-84
2021/03/20 00:09:53;;;;;;;5.30;4.80;;;;;;;2.82;67.79;96022.69;5033665;28;20236;-84
2021/03/20 00:12:20;;;;;;;5.13;4.63;;;;;;;2.84;66.72;96025.94;5034743;28;20255;-82
2021/03/20 00:14:46;;;;;;;5.77;5.17;;;;;;;2.80;66.79;96022.81;5035259;28;20194;-83
2021/03/20 00:17:12;;;;;;;6.93;5.63;;;;;;;2.84;67.32;96029.28;5034884;28;20222;-84
2021/03/20 00:19:37;;;;;;;5.80;5.20;;;;;;;2.81;66.69;96026.16;5035348;28;20239;-85
2021/03/20 00:22:04;;;;;;;5.87;5.13;;;;;;;2.76;67.26;96029.03;5034875;28;20802;-85
2021/03/20 00:24:30;;;;;;;6.00;5.40;;;;;;;2.68;66.57;96031.38;5035803;28;20226;-82
2021/03/20 00:26:56;;;;;;;7.63;5.30;;;;;;;2.69;66.74;96028.69;5036351;28;20206;-83
2021/03/20 00:29:22;;;;;;;6.27;5.13;;;;;;;2.71;67.60;96036.22;5035817;28;20279;-83
2021/03/20 00:31:48;;;;;;;6.83;5.30;;;;;;;2.72;67.00;96037.81;5035458;28;20238;-84
2021/03/20 00:34:14;;;;;;;5.83;5.23;;;;;;;2.55;67.06;96041.66;5034604;28;20229;-82
2021/03/20 00:36:40;;;;;;;5.53;5.03;;;;;;;2.58;67.40;96035.53;5035114;28;20233;-85
2021/03/20 00:39:08;;;;;;;5.97;5.30;;;;;;;2.68;67.07;96039.81;5034598;28;20297;-82
2021/03/20 00:41:35;;;;;;;6.10;5.47;;;;;;;2.81;67.25;96033.78;5032839;28;20197;-83
2021/03/20 00:44:01;;;;;;;5.43;4.73;;;;;;;2.85;66.94;96038.53;5032442;28;20237;-83
2021/03/20 00:46:27;;;;;;;5.23;4.73;;;;;;;2.88;66.43;96040.84;5035585;28;20218;-80
2021/03/20 00:48:53;;;;;;;5.50;4.90;;;;;;;2.74;66.46;96044.41;5035839;28;20221;-82
2021/03/20 00:51:19;;;;;;;5.73;5.13;;;;;;;2.67;66.66;96056.00;5035843;28;20198;-81
2021/03/20 00:53:45;;;;;;;5.80;5.20;;;;;;;2.66;67.06;96044.22;5036176;28;20219;-82
2021/03/20 00:56:12;;;;;;;5.70;4.80;;;;;;;2.62;66.70;96049.63;5016217;28;20254;-84
2021/03/20 00:58:41;;;;;;;5.13;4.63;;;;;;;2.50;66.97;96040.41;5028414;28;20280;-85
2021/03/20 01:01:10;;;;;;;6.27;5.13;;;;;;;2.41;66.87;96041.91;5035369;28;20226;-84
2021/03/20 01:03:38;;;;;;;5.70;5.10;;;;;;;2.33;67.83;96045.00;5034609;28;20287;-82
2021/03/20 01:06:05;;;;;;;5.37;4.77;;;;;;;2.45;67.53;96037.41;5035616;28;20834;-85
2021/03/20 01:08:31;;;;;;;5.90;5.30;;;;;;;2.43;67.06;96035.78;5034190;28;20226;-86
2021/03/20 01:10:57;;;;;;;5.97;5.07;;;;;;;2.42;67.09;96040.97;5034723;28;20397;-85
2021/03/20 01:13:23;;;;;;;5.90;5.27;;;;;;;2.34;66.57;96040.72;5034066;28;20239;-85
2021/03/20 01:15:50;;;;;;;5.27;4.77;;;;;;;2.29;67.18;96037.75;5034688;28;20218;-83
2021/03/20 01:18:16;;;;;;;5.80;5.20;;;;;;;2.27;67.19;96042.13;5034797;28;20209;-83
2021/03/20 01:20:43;;;;;;;5.87;5.27;;;;;;;2.36;67.69;96047.31;5034923;28;20229;-84
2021/03/20 01:23:09;;;;;;;6.10;5.50;;;;;;;2.32;67.19;96045.09;5034457;28;20230;-84
2021/03/20 01:25:36;;;;;;;5.90;5.30;;;;;;;2.23;67.06;96039.00;5035119;28;20233;-84
2021/03/20 01:28:03;;;;;;;5.73;5.13;;;;;;;2.23;67.25;96035.66;5034858;28;20830;-83
2021/03/20 01:30:33;;;;;;;6.10;5.40;;;;;;;2.28;67.58;96033.59;5034486;28;20225;-82
2021/03/20 01:32:59;;;;;;;5.87;5.27;;;;;;;2.25;67.31;96037.16;5035184;28;20225;-85
2021/03/20 01:35:26;;;;;;;5.80;5.20;;;;;;;2.23;67.10;96035.66;5034464;28;20711;-84
2021/03/20 01:37:52;;;;;;;5.80;5.20;;;;;;;2.30;67.68;96041.91;5034473;28;20470;-84
2021/03/20 01:40:20;;;;;;;6.37;5.37;;;;;;;2.35;67.15;96042.34;5033681;28;20242;-81
2021/03/20 01:42:46;;;;;;;6.40;5.70;;;;;;;2.36;67.10;96046.50;5034499;28;20769;-83
2021/03/20 01:45:16;;;;;;;5.80;5.07;;;;;;;2.39;66.68;96043.75;5034066;28;20240;-83
2021/03/20 01:47:57;;;;;;;5.63;5.10;;;;;;;2.36;66.24;96046.50;5035027;28;20573;-83
2021/03/20 01:50:32;;;;;;;6.17;5.40;;;;;;;2.40;66.17;96043.63;5034427;28;20226;-84
2021/03/20 01:53:01;;;;;;;5.87;5.30;;;;;;;2.45;66.30;96035.66;5034580;28;20670;-82
2021/03/20 01:55:28;;;;;;;6.10;5.20;;;;;;;2.49;65.49;96043.88;5034426;28;20222;-84
2021/03/20 01:57:57;;;;;;;5.83;5.23;;;;;;;2.50;65.74;96040.41;5033505;28;20252;-84
2021/03/20 02:00:29;;;;;;;5.53;5.03;;;;;;;2.48;65.22;96049.88;5034168;28;20257;-83
2021/03/20 02:02:56;;;;;;;6.13;5.53;;;;;;;2.41;65.41;96041.91;5034093;28;20263;-83
2021/03/20 02:05:26;;;;;;;5.87;5.37;;;;;;;2.40;65.71;96037.72;5033152;28;20233;-82
2021/03/20 02:07:53;;;;;;;6.43;5.40;;;;;;;2.42;66.06;96040.97;5032758;28;20226;-83
2021/03/20 02:10:20;;;;;;;5.87;5.17;;;;;;;2.44;65.75;96039.13;5033495;28;20287;-82
2021/03/20 02:12:50;;;;;;;5.60;5.10;;;;;;;2.46;66.21;96041.56;5031184;28;20276;-84
2021/03/20 02:15:24;;;;;;;6.33;5.50;;;;;;;2.50;66.12;96046.31;5033590;28;20202;-84
2021/03/20 02:17:59;;;;;;;6.07;5.37;;;;;;;2.52;66.28;96038.53;5034122;28;20207;-84
2021/03/20 02:20:51;;;;;;;6.00;5.40;;;;;;;2.48;66.57;96044.78;5033599;28;20732;-82
2021/03/20 02:23:46;;;;;;;6.70;6.00;;;;;;;2.43;66.83;96047.66;5014053;28;20239;-82
2021/03/20 02:26:50;;;;;;;6.17;5.57;;;;;;;2.30;67.44;96040.16;5025799;28;20702;-82
2021/03/20 02:29:42;;;;;;;6.23;5.63;;;;;;;2.37;67.26;96053.19;5028135;28;20218;-83
2021/03/20 02:32:27;;;;;;;6.60;5.90;;;;;;;2.48;66.78;96042.25;5032280;28;20244;-83
2021/03/20 02:35:02;;;;;;;6.27;5.37;;;;;;;2.41;66.33;96050.31;5032698;28;20702;-82
2021/03/20 02:37:35;;;;;;;6.57;5.90;;;;;;;2.37;67.06;96048.13;5033450;28;20229;-83
2021/03/20 02:40:07;;;;;;;6.10;5.50;;;;;;;2.46;66.99;96051.72;5033442;28;20295;-83
2021/03/20 02:42:38;;;;;;;7.43;6.10;;;;;;;2.40;67.41;96050.44;5032514;28;20584;-83
2021/03/20 02:45:10;;;;;;;5.90;5.30;;;;;;;2.37;67.28;96050.66;5032260;28;20195;-85
2021/03/20 02:47:44;;;;;;;6.10;5.50;;;;;;;2.33;67.61;96051.81;5033740;28;20229;-82
2021/03/20 02:50:18;;;;;;;6.33;5.67;;;;;;;2.28;67.87;96041.19;5032800;28;20699;-84
2021/03/20 02:52:50;;;;;;;6.67;6.00;;;;;;;2.26;68.11;96043.03;5032318;28;20232;-85
2021/03/20 02:55:21;;;;;;;8.17;6.10;;;;;;;2.29;67.44;96045.38;5033099;28;20222;-83
2021/03/20 02:57:51;;;;;;;7.03;6.33;;;;;;;2.06;68.84;96042.78;5033617;28;20226;-83
2021/03/20 03:00:21;;;;;;;7.00;6.30;;;;;;;2.17;68.24;96048.78;5032048;28;20213;-84
2021/03/20 03:02:49;;;;;;;6.13;5.53;;;;;;;2.27;68.13;96049.75;5033770;28;20230;-83
2021/03/20 03:05:18;;;;;;;6.57;5.97;;;;;;;2.15;68.33;96056.53;5032899;28;20222;-85
2021/03/20 03:07:48;;;;;;;6.13;5.53;;;;;;;2.11;68.76;96055.16;5032893;28;20356;-82
2021/03/20 03:10:20;;;;;;;7.10;5.97;;;;;;;1.98;68.53;96050.16;5036328;28;20225;-85
2021/03/20 03:12:51;;;;;;;7.00;6.30;;;;;;;2.01;68.48;96056.75;5037506;28;20801;-83
2021/03/20 03:15:23;;;;;;;6.07;5.40;;;;;;;2.08;68.92;96052.84;5037714;28;20194;-85
2021/03/20 03:17:58;;;;;;;5.73;5.17;;;;;;;2.00;68.69;96052.59;5041464;28;20194;-85
2021/03/20 03:20:29;;;;;;;6.13;5.50;;;;;;;1.93;69.45;96057.28;5033505;28;20221;-85
2021/03/20 03:22:59;;;;;;;5.80;5.20;;;;;;;1.88;69.28;96058.56;5033998;28;20226;-85
2021/03/20 03:25:27;;;;;;;6.20;5.00;;;;;;;1.93;69.22;96054.75;5034000;28;20245;-85
2021/03/20 03:27:57;;;;;;;5.50;4.60;;;;;;;1.86;69.17;96061.22;5033447;28;20279;-85
2021/03/20 03:30:27;;;;;;;8.47;5.20;;;;;;;1.92;69.58;96060.78;5033215;28;20194;-85
2021/03/20 03:32:59;;;;;;;5.10;4.53;;;;;;;1.85;69.32;96062.13;5036004;28;20236;-84
2021/03/20 03:35:31;;;;;;;6.03;4.63;;;;;;;2.00;68.70;96063.53;5034406;28;20225;-85
2021/03/20 03:38:03;;;;;;;4.70;4.30;;;;;;;2.05;68.75;96064.03;5032809;28;20218;-85
2021/03/20 03:40:34;;;;;;;5.23;4.53;;;;;;;2.07;68.60;96056.31;5031874;28;20245;-85
2021/03/20 03:43:00;;;;;;;5.43;4.63;;;;;;;2.05;68.61;96061.50;5032974;28;20303;-85
2021/03/20 03:45:26;;;;;;;4.97;4.40;;;;;;;2.06;69.24;96062.28;5032338;28;20264;-85
2021/03/20 03:47:54;;;;;;;4.60;4.20;;;;;;;1.98;68.93;96060.31;5033402;28;20670;-84
2021/03/20 03:50:25;;;;;;;5.03;4.53;;;;;;;2.06;68.99;96065.66;5031778;28;20222;-85
2021/03/20 03:52:51;;;;;;;5.13;4.63;;;;;;;2.12;68.89;96061.03;5032257;28;20230;-85
2021/03/20 03:55:17;;;;;;;4.43;4.03;;;;;;;2.14;69.02;96062.53;5032549;28;20229;-84
2021/03/20 03:58:15;;;;;;;4.70;4.10;;;;;;;2.26;68.77;96055.75;5032238;28;20222;-85
2021/03/20 04:00:45;;;;;;;4.57;4.17;;;;;;;2.23;68.72;96055.97;5022327;28;20229;-84
2021/03/20 04:03:37;;;;;;;5.10;4.23;;;;;;;2.10;69.55;96065.44;5030235;28;20233;-84
2021/03/20 04:06:15;;;;;;;5.13;4.20;;;;;;;1.99;69.45;96061.13;5019619;28;20198;-84
2021/03/20 04:08:47;;;;;;;5.33;4.53;;;;;;;1.90;70.12;96061.81;5032413;28;20236;-83
2021/03/20 04:11:21;;;;;;;5.20;4.47;;;;;;;1.99;70.16;96066.19;5031760;28;20870;-85
2021/03/20 04:13:54;;;;;;;5.10;4.60;;;;;;;2.01;69.97;96064.34;5032269;28;20293;-85
2021/03/20 04:16:22;;;;;;;5.87;4.47;;;;;;;2.05;69.77;96066.56;5032041;28;20228;-84
2021/03/20 04:19:02;;;;;;;4.90;4.40;;;;;;;2.00;71.03;96081.31;5031830;28;20255;-85
2021/03/20 04:21:38;;;;;;;4.80;4.30;;;;;;;2.04;70.79;96077.66;5012052;28;20235;-85
2021/03/20 04:24:09;;;;;;;4.90;4.40;;;;;;;2.05;70.38;96075.91;5012530;28;20245;-84
2021/03/20 04:26:42;;;;;;;5.80;4.50;;;;;;;1.88;72.17;96082.22;5012054;28;20221;-85
2021/03/20 04:29:16;;;;;;;5.13;4.63;;;;;;;1.95;71.79;96078.31;5023062;28;20295;-85
2021/03/20 04:31:46;;;;;;;5.30;4.80;;;;;;;1.93;71.75;96080.13;5031571;28;20708;-85
2021/03/20 04:34:18;;;;;;;5.67;4.87;;;;;;;1.93;71.94;96076.78;5032274;28;20234;-85
2021/03/20 04:36:49;;;;;;;5.23;4.73;;;;;;;1.97;71.27;96073.13;5031808;28;20218;-84
2021/03/20 04:39:18;;;;;;;5.97;4.50;;;;;;;2.08;71.18;96083.31;5032079;28;20251;-83
2021/03/20 04:41:46;;;;;;;5.13;4.63;;;;;;;2.06;71.42;96077.53;5032328;28;20194;-85
2021/03/20 04:44:13;;;;;;;5.03;4.53;;;;;;;2.04;70.60;96079.38;5031458;28;20280;-84
2021/03/20 04:46:40;;;;;;;4.90;4.47;;;;;;;2.06;71.43;96075.81;5031907;28;20237;-85
2021/03/20 04:49:16;;;;;;;5.20;4.70;;;;;;;1.98;70.80;96078.09;5032120;28;20257;-85
2021/03/20 04:51:46;;;;;;;5.03;4.53;;;;;;;1.99;70.73;96084.78;5031653;28;20291;-85
2021/03/20 04:54:15;;;;;;;4.70;4.17;;;;;;;2.03;70.82;96085.38;5031752;28;20222;-84
2021/03/20 04:56:46;;;;;;;4.83;4.37;;;;;;;2.01;71.09;96088.03;5033958;28;20266;-85
2021/03/20 04:59:36;;;;;;;5.63;4.77;;;;;;;1.94;71.24;96086.03;5035183;28;20218;-85
2021/03/20 05:02:12;;;;;;;4.77;4.10;;;;;;;1.92;70.70;96100.59;5035346;28;20229;-85
2021/03/20 05:04:40;;;;;;;4.67;4.27;;;;;;;1.85;71.39;96095.13;5035064;28;20230;-85
2021/03/20 05:07:08;;;;;;;4.93;4.30;;;;;;;1.92;70.90;96095.50;5035214;28;20236;-84
2021/03/20 05:09:34;;;;;;;4.27;3.90;;;;;;;2.00;70.47;96088.13;5033746;28;20245;-85
2021/03/20 05:12:10;;;;;;;4.90;4.40;;;;;;;2.13;70.00;96100.72;5035710;28;20210;-84
2021/03/20 05:14:40;;;;;;;4.93;4.40;;;;;;;1.95;70.23;96103.69;5035667;28;20223;-83
2021/03/20 05:17:09;;;;;;;4.80;4.30;;;;;;;1.95;70.70;96102.88;5034338;28;20222;-84
2021/03/20 05:19:35;;;;;;;4.80;4.20;;;;;;;1.97;71.00;96103.59;5034571;28;20230;-84
2021/03/20 05:22:05;;;;;;;5.30;4.07;;;;;;;1.94;70.97;96112.22;5015328;28;20233;-85
2021/03/20 05:24:35;;;;;;;4.60;4.13;;;;;;;1.94;71.03;96091.91;5014840;28;20234;-84
2021/03/20 05:27:04;;;;;;;4.67;4.27;;;;;;;1.97;71.05;96106.13;5034583;28;20209;-85
2021/03/20 05:29:30;;;;;;;4.53;4.00;;;;;;;1.98;70.66;96112.81;5034353;28;20218;-84
2021/03/20 05:31:58;;;;;;;4.90;4.20;;;;;;;1.87;70.64;96116.16;5034071;28;20222;-85
2021/03/20 05:34:28;;;;;;;4.43;4.00;;;;;;;1.91;70.57;96106.59;5024097;28;20748;-79
2021/03/20 05:36:54;;;;;;;5.07;4.57;;;;;;;1.93;69.93;96105.53;5028474;28;20221;-79
2021/03/20 05:39:25;;;;;;;5.27;4.70;;;;;;;1.93;69.75;96105.53;5028196;28;20792;-82
2021/03/20 05:42:16;;;;;;;4.57;4.17;;;;;;;1.87;70.66;96112.78;5030934;28;20186;-79
2021/03/20 05:44:52;;;;;;;5.07;4.40;;;;;;;1.88;70.90;96110.16;5026146;28;20226;-79
2021/03/20 05:47:31;;;;;;;4.80;4.30;;;;;;;1.79;71.19;96110.00;5017766;28;20225;-81
2021/03/20 05:50:10;;;;;;;4.60;4.20;;;;;;;1.85;70.80;96117.16;5032005;28;20226;-80
2021/03/20 05:52:56;;;;;;;4.63;4.20;;;;;;;1.78;70.18;96123.59;5033078;28;20348;-86
2021/03/20 05:55:29;;;;;;;4.33;3.93;;;;;;;1.73;70.05;96117.13;5034512;28;20225;-85
2021/03/20 05:58:07;;;;;;;4.43;4.03;;;;;;;1.80;69.69;96126.84;5030610;28;20222;-83
2021/03/20 06:00:44;;;;;;;4.00;3.50;;;;;;;1.69;69.04;96136.03;5029572;28;20252;-82
2021/03/20 06:03:35;;;;;;;3.53;3.13;;;;;;;1.50;68.80;96129.84;5029930;28;20236;-82
2021/03/20 06:06:05;;;;;;;3.27;2.97;;;;;;;1.56;67.58;96140.34;5032514;28;20697;-85
2021/03/20 06:08:46;;;;;;;3.13;2.83;;;;;;;1.55;66.84;96138.72;5031045;28;20218;-81
2021/03/20 06:11:27;;;;;;;3.63;3.13;;;;;;;1.61;66.49;96140.84;5030057;28;20229;-84
2021/03/20 06:14:07;;;;;;;3.27;2.90;;;;;;;1.54;64.86;96142.16;5028115;28;20740;-86
2021/03/20 06:16:37;;;;;;;3.30;3.00;;;;;;;1.51;65.00;96144.94;5033126;28;20233;-82
2021/03/20 06:19:51;;;;;;;3.20;2.90;;;;;;;1.46;64.27;96144.44;5032732;28;20984;-85
2021/03/20 06:22:44;;;;;;;3.50;3.20;;;;;;;1.50;64.29;96152.66;5031510;28;20268;-84
2021/03/20 06:25:33;;;;;;;3.47;3.00;;;;;;;1.57;63.77;96149.56;5033284;28;20226;-81
2021/03/20 06:28:00;;;;;;;3.40;3.10;;;;;;;1.61;63.31;96150.97;5033171;28;20237;-85
2021/03/20 06:30:37;;;;;;;3.63;3.27;;;;;;;1.67;63.04;96162.44;5032379;28;20198;-83
2021/03/20 06:33:12;;;;;;;4.20;3.47;;;;;;;1.80;64.70;96170.00;5031603;28;20222;-83
2021/03/20 06:35:42;;;;;;;3.60;3.27;;;;;;;1.86;63.48;96165.31;5023447;28;20221;-82
2021/03/20 06:38:18;;;;;;;3.47;3.17;;;;;;;1.97;62.86;96174.69;5033165;28;20234;-86
2021/03/20 06:40:51;;;;;;;3.70;3.40;;;;;;;1.91;62.79;96175.13;5030986;28;20229;-84
2021/03/20 06:43:19;;;;;;;4.73;3.30;;;;;;;1.95;62.68;96184.13;5030255;28;20230;-83
2021/03/20 06:45:48;;;;;;;3.63;3.33;;;;;;;1.92;61.06;96181.84;5029113;28;20267;-83
2021/03/20 06:48:16;;;;;;;3.70;3.30;;;;;;;1.90;62.45;96191.28;5029129;28;20232;-83
2021/03/20 06:50:45;;;;;;;4.27;3.27;;;;;;;1.83;62.40;96183.28;5029324;28;20195;-81
2021/03/20 06:53:15;;;;;;;4.00;3.60;;;;;;;1.98;62.45;96186.47;5028875;28;20226;-83
2021/03/20 06:55:43;;;;;;;4.10;3.70;;;;;;;2.10;62.48;96187.34;5029433;28;20225;-81
2021/03/20 06:58:17;;;;;;;4.07;3.67;;;;;;;2.05;62.02;96187.66;5029165;28;20233;-83
2021/03/20 07:00:44;;;;;;;3.80;3.47;;;;;;;2.12;62.29;96188.81;5028698;28;20229;-84
2021/03/20 07:03:36;;;;;;;5.03;3.40;;;;;;;2.11;61.18;96194.03;5030055;28;20241;-85
2021/03/20 07:06:09;;;;;;;3.33;3.03;;;;;;;2.28;60.48;96191.09;5030046;28;20198;-80
2021/03/20 07:08:46;;;;;;;4.07;3.67;;;;;;;2.31;60.74;96203.59;5010754;28;20229;-81
2021/03/20 07:11:20;;;;;;;4.67;3.43;;;;;;;2.25;60.48;96196.38;5010585;28;20226;-81
2021/03/20 07:13:50;;;;;;;4.30;3.90;;;;;;;2.11;60.99;96199.94;5030145;28;20233;-83
2021/03/20 07:16:18;;;;;;;4.27;3.83;;;;;;;2.25;61.36;96198.94;5030019;28;20221;-81
2021/03/20 07:18:47;;;;;;;4.03;3.73;;;;;;;2.34;60.70;96198.25;5029376;28;20928;-82
2021/03/20 07:21:28;;;;;;;3.77;3.13;;;;;;;2.43;60.75;96210.31;5026819;28;20233;-83
2021/03/20 07:23:57;;;;;;;3.70;3.40;;;;;;;2.48;60.21;96217.59;5023469;28;20233;-81
2021/03/20 07:26:23;;;;;;;3.47;3.17;;;;;;;2.61;60.15;96216.59;5029271;28;20230;-82
2021/03/20 07:28:53;;;;;;;3.90;3.50;;;;;;;2.86;59.48;96215.59;5029205;28;20233;-83
2021/03/20 07:31:20;;;;;;;3.70;3.40;;;;;;;3.25;58.42;96213.53;5028661;28;20224;-83
2021/03/20 07:33:48;;;;;;;3.80;3.50;;;;;;;3.59;57.99;96210.03;5029158;28;20232;-84
2021/03/20 07:36:21;;;;;;;3.93;3.47;;;;;;;3.50;57.47;96212.47;5027196;28;20846;-84
2021/03/20 07:39:09;;;;;;;4.00;3.30;;;;;;;3.71;57.20;96214.16;5026102;28;20206;-86
2021/03/20 07:41:49;;;;;;;4.03;3.60;;;;;;;3.45;57.33;96206.00;5028329;28;20712;-84
2021/03/20 07:44:16;;;;;;;3.80;3.47;;;;;;;3.35;56.78;96211.91;5030065;28;20230;-82
2021/03/20 07:46:42;;;;;;;3.60;3.30;;;;;;;3.36;58.20;96216.06;5030291;28;20708;-80
2021/03/20 07:49:22;;;;;;;3.70;3.30;;;;;;;3.26;57.45;96215.97;5029312;28;20229;-83
2021/03/20 07:51:50;;;;;;;3.73;3.37;;;;;;;3.16;58.00;96227.75;5028310;28;20230;-84
2021/03/20 07:54:28;;;;;;;4.03;3.47;;;;;;;3.10;57.76;96229.00;5028478;28;20218;-84
2021/03/20 07:56:54;;;;;;;3.90;3.50;;;;;;;3.02;57.90;96225.44;5028896;28;20205;-82
2021/03/20 07:59:24;;;;;;;3.70;3.40;;;;;;;3.54;56.66;96234.22;5027885;28;20274;-84
2021/03/20 08:01:55;;;;;;;3.60;3.30;;;;;;;4.29;55.07;96234.28;5028097;28;20606;-85
2021/03/20 08:04:57;;;;;;;3.67;3.27;;;;;;;5.11;53.33;96233.50;5028814;28;20241;-83
2021/03/20 08:07:39;;;;;;;3.60;3.30;;;;;;;5.81;51.75;96244.63;5027533;28;20232;-86
2021/03/20 08:10:18;;;;;;;3.47;2.97;;;;;;;5.88;50.12;96240.63;5027972;28;20213;-86
2021/03/20 08:12:52;;;;;;;3.60;3.30;;;;;;;5.92;49.13;96244.56;5027199;28;20297;-86
2021/03/20 08:15:23;;;;;;;3.87;3.57;;;;;;;5.83;49.90;96256.34;5028683;28;20202;-83
2021/03/20 08:17:49;;;;;;;3.60;3.30;;;;;;;5.71;49.66;96247.16;5030018;28;20209;-84
2021/03/20 08:20:17;;;;;;;3.43;3.13;;;;;;;5.58;49.88;96248.34;5027590;28;20272;-83
2021/03/20 08:23:08;;;;;;;3.63;3.33;;;;;;;5.31;50.86;96256.56;5028303;28;20226;-84
2021/03/20 08:25:47;;;;;;;4.13;3.40;;;;;;;5.11;51.39;96259.00;5029745;28;20236;-84
2021/03/20 08:28:30;;;;;;;3.53;3.23;;;;;;;5.51;50.93;96259.06;5029767;28;20230;-81
2021/03/20 08:31:05;;;;;;;3.70;3.40;;;;;;;5.68;51.03;96252.53;5024487;28;20202;-83
2021/03/20 08:33:47;;;;;;;4.27;2.87;;;;;;;6.28;48.96;96255.09;5032688;28;20222;-81
2021/03/20 08:36:26;;;;;;;3.33;3.10;;;;;;;6.61;48.09;96264.94;5034622;28;20198;-81
2021/03/20 08:38:58;;;;;;;3.43;3.17;;;;;;;6.71;48.01;96257.28;5015150;28;20207;-82
2021/03/20 08:41:31;;;;;;;3.20;2.90;;;;;;;7.24;47.47;96266.06;5023686;28;20222;-83
2021/03/20 08:44:18;;;;;;;3.10;2.90;;;;;;;7.63;44.55;96256.50;5035109;28;20218;-82
2021/03/20 08:47:00;;;;;;;2.90;2.60;;;;;;;7.96;43.53;96262.78;5032017;28;20233;-81
2021/03/20 08:49:38;;;;;;;2.80;2.60;;;;;;;7.03;43.26;96262.88;5024788;28;20205;-80
2021/03/20 08:52:16;;;;;;;2.50;2.30;;;;;;;6.23;44.21;96265.72;5033276;28;20194;-83
2021/03/20 08:55:06;;;;;;;3.10;2.80;;;;;;;5.78;45.30;96266.13;5035637;28;20685;-83
2021/03/20 08:57:40;;;;;;;2.90;2.67;;;;;;;5.34;47.48;96264.78;5034491;28;20221;-84
2021/03/20 09:00:17;;;;;;;3.33;3.03;;;;;;;5.10;48.95;96272.69;5033699;28;20234;-83
2021/03/20 09:02:45;;;;;;;3.53;3.23;;;;;;;4.86;50.00;96279.78;5033980;28;20782;-81
2021/03/20 09:05:22;;;;;;;3.10;2.90;;;;;;;4.70;50.80;96279.41;5035108;28;20230;-83
2021/03/20 09:07:55;;;;;;;3.80;3.47;;;;;;;4.47;51.22;96288.91;5034421;28;20245;-83
2021/03/20 09:10:27;;;;;;;3.30;3.00;;;;;;;4.32;51.15;96285.00;5033885;28;20198;-84
2021/03/20 09:13:02;;;;;;;3.07;2.87;;;;;;;4.33;50.80;96289.19;5034850;28;20222;-80
2021/03/20 09:15:30;;;;;;;3.87;3.07;;;;;;;4.20;51.08;96280.88;5034151;28;20232;-80
2021/03/20 09:18:00;;;;;;;3.40;3.10;;;;;;;3.99;50.82;96278.28;5033584;28;20241;-82
2021/03/20 09:20:39;;;;;;;3.83;3.43;;;;;;;3.75;51.98;96278.41;5033467;28;20238;-80
2021/03/20 09:23:15;;;;;;;6.30;3.50;;;;;;;3.68;53.04;96280.63;5034320;28;20228;-80
2021/03/20 09:25:42;;;;;;;3.77;3.47;;;;;;;3.71;53.97;96284.66;5033051;28;20252;-82
2021/03/20 09:28:12;;;;;;;5.80;3.57;;;;;;;4.03;53.46;96288.13;5032416;28;20206;-80
2021/03/20 09:30:39;;;;;;;3.60;3.30;;;;;;;4.00;53.06;96288.34;5033335;28;20225;-80
2021/03/20 09:33:14;;;;;;;4.07;3.40;;;;;;;4.59;52.22;96282.03;5033676;28;20238;-82
2021/03/20 09:35:44;;;;;;;3.67;3.37;;;;;;;5.52;51.82;96280.31;5033728;28;20220;-81
2021/03/20 09:38:12;;;;;;;3.70;3.40;;;;;;;5.68;51.32;96277.28;5034054;28;20233;-82
2021/03/20 09:40:50;;;;;;;3.40;3.10;;;;;;;5.45;50.07;96280.00;5033088;28;20761;-82
2021/03/20 09:43:19;;;;;;;3.63;3.30;;;;;;;5.29;50.02;96278.84;5033012;28;20283;-81
2021/03/20 09:45:45;;;;;;;3.57;3.27;;;;;;;5.21;50.70;96279.47;5033890;28;20205;-81
2021/03/20 09:48:41;;;;;;;3.53;3.23;;;;;;;5.12;49.70;96285.34;5034061;28;20225;-82
2021/03/20 09:51:40;;;;;;;3.63;3.33;;;;;;;5.00;49.93;96279.50;5032862;28;20252;-81
2021/03/20 09:54:40;;;;;;;5.10;3.30;;;;;;;4.88;50.06;96284.78;5033929;28;20229;-83
2021/03/20 09:57:39;;;;;;;3.83;3.20;;;;;;;4.49;50.74;96281.94;5031958;28;20230;-82
2021/03/20 10:00:06;;;;;;;4.47;3.40;;;;;;;4.44;51.04;96279.75;5030022;28;20218;-83
2021/03/20 10:02:50;;;;;;;3.40;3.10;;;;;;;4.81;49.89;96282.72;5033409;28;20226;-83
2021/03/20 10:05:28;;;;;;;3.30;2.90;;;;;;;5.41;48.36;96272.72;5033621;28;20249;-82
2021/03/20 10:08:00;;;;;;;3.80;3.50;;;;;;;5.50;44.68;96274.50;5033934;28;20222;-83
2021/03/20 10:10:48;;;;;;;3.00;2.70;;;;;;;5.89;45.97;96273.75;5013210;28;20210;-81
2021/03/20 10:13:18;;;;;;;3.40;2.67;;;;;;;6.03;46.02;96281.97;5013070;28;20252;-82
2021/03/20 10:15:59;;;;;;;3.20;3.00;;;;;;;5.90;45.19;96277.09;5027384;28;20202;-83
2021/03/20 10:18:35;;;;;;;2.90;2.60;;;;;;;5.68;44.96;96272.97;5033644;28;20267;-81
2021/03/20 10:21:20;;;;;;;3.57;3.27;;;;;;;5.28;47.53;96270.38;5032277;28;20230;-83
2021/03/20 10:23:53;;;;;;;3.40;3.10;;;;;;;4.91;48.73;96282.78;5031805;28;20230;-84
2021/03/20 10:26:29;;;;;;;3.47;3.17;;;;;;;4.74;49.98;96283.34;5033695;28;20225;-81
2021/03/20 10:28:56;;;;;;;3.30;3.00;;;;;;;4.41;49.78;96286.84;5032482;28;20221;-81
2021/03/20 10:31:24;;;;;;;3.73;3.37;;;;;;;4.20;50.10;96283.44;5032818;28;20241;-83
2021/03/20 10:34:01;;;;;;;3.77;3.47;;;;;;;3.84;51.26;96287.09;5033311;28;20218;-84
2021/03/20 10:36:32;;;;;;;4.07;3.67;;;;;;;3.63;52.12;96284.47;5033893;28;20237;-81
2021/03/20 10:38:58;;;;;;;4.13;3.77;;;;;;;3.61;51.59;96284.56;5033393;28;20206;-82
2021/03/20 10:41:31;;;;;;;4.60;3.50;;;;;;;3.53;52.83;96289.41;5032473;28;20236;-81
2021/03/20 10:44:01;;;;;;;4.27;3.87;;;;;;;3.61;53.01;96282.03;5032893;28;20512;-81
2021/03/20 10:46:31;;;;;;;4.20;3.90;;;;;;;3.81;52.90;96293.25;5013422;28;20211;-82
2021/03/20 10:49:00;;;;;;;4.17;3.77;;;;;;;3.94;52.12;96290.56;5025531;28;20693;-81
2021/03/20 10:51:33;;;;;;;3.60;3.30;;;;;;;3.88;51.25;96296.91;5031521;28;20721;-83
2021/03/20 10:54:09;;;;;;;3.67;3.37;;;;;;;3.97;50.74;96292.88;5031838;28;20238;-81
2021/03/20 10:56:39;;;;;;;4.87;3.60;;;;;;;4.37;50.57;96298.22;5032366;28;20217;-83
2021/03/20 10:59:14;;;;;;;3.60;3.30;;;;;;;4.72;49.67;96300.50;5031890;28;20226;-81
2021/03/20 11:01:40;;;;;;;3.57;3.27;;;;;;;4.71;46.29;96291.25;5032075;28;20272;-82
2021/03/20 11:04:13;;;;;;;3.73;3.43;;;;;;;4.75;47.93;96284.97;5033219;28;20285;-81
2021/03/20 11:06:39;;;;;;;3.80;3.50;;;;;;;5.20;46.18;96277.84;5032991;28;20259;-84
2021/03/20 11:09:14;;;;;;;5.63;3.60;;;;;;;5.53;46.02;96282.72;5031721;28;20229;-83
2021/03/20 11:11:42;;;;;;;3.30;3.00;;;;;;;5.36;47.85;96291.00;5032278;28;20201;-82
2021/03/20 11:14:12;;;;;;;3.80;3.50;;;;;;;5.00;48.46;96283.81;5032691;28;20233;-82
2021/03/20 11:16:47;;;;;;;4.00;3.70;;;;;;;4.73;50.10;96284.28;5033834;28;20226;-81
2021/03/20 11:19:23;;;;;;;4.37;3.97;;;;;;;4.69;50.63;96304.13;5032964;28;20247;-83
2021/03/20 11:21:59;;;;;;;5.20;4.33;;;;;;;4.54;51.54;96292.59;5037512;28;20256;-84
2021/03/20 11:24:28;;;;;;;4.53;4.13;;;;;;;4.38;51.68;96290.44;5032086;28;20229;-83
2021/03/20 11:26:56;;;;;;;4.63;4.20;;;;;;;4.27;51.90;96305.75;5032830;28;20337;-82
2021/03/20 11:29:27;;;;;;;5.20;4.70;;;;;;;4.15;53.24;96306.72;5032540;28;20678;-81
2021/03/20 11:31:58;;;;;;;5.23;4.73;;;;;;;3.97;53.73;96308.16;5032154;28;20212;-84
2021/03/20 11:34:30;;;;;;;5.30;4.80;;;;;;;3.90;53.38;96304.44;5031842;28;20225;-82
2021/03/20 11:36:57;;;;;;;5.20;4.77;;;;;;;3.78;54.13;96303.66;5032825;28;20877;-82
2021/03/20 11:39:26;;;;;;;4.77;4.30;;;;;;;3.49;54.05;96308.38;5031620;28;20218;-84
2021/03/20 11:42:00;;;;;;;4.90;4.50;;;;;;;3.53;53.61;96309.78;5032149;28;20226;-83
2021/03/20 11:44:28;;;;;;;5.27;4.37;;;;;;;3.39;54.70;96312.56;5030311;28;20225;-83
2021/03/20 11:46:57;;;;;;;4.40;4.00;;;;;;;3.28;54.44;96308.25;5032701;28;20222;-80
2021/03/20 11:49:27;;;;;;;4.80;4.40;;;;;;;3.28;54.18;96305.72;5030323;28;20226;-82
2021/03/20 11:51:55;;;;;;;4.03;3.73;;;;;;;3.27;53.70;96306.63;5031797;28;20228;-84
2021/03/20 11:54:27;;;;;;;4.40;4.00;;;;;;;3.15;52.43;96299.91;5031412;28;20288;-81
2021/03/20 11:56:56;;;;;;;4.40;3.73;;;;;;;3.29;53.19;96304.78;5031174;28;20229;-84
2021/03/20 11:59:36;;;;;;;4.07;3.60;;;;;;;3.51;52.51;96304.00;5031571;28;20206;-84
2021/03/20 12:02:03;;;;;;;4.07;3.77;;;;;;;3.69;52.64;96302.59;5031955;28;20225;-85
2021/03/20 12:04:30;;;;;;;3.80;3.50;;;;;;;3.73;51.46;96300.63;5031880;28;20234;-82
2021/03/20 12:07:25;;;;;;;3.97;3.57;;;;;;;3.90;50.90;96299.34;5035649;28;20202;-82